sensor_id;sensor_type;location;lat;lon;timestamp;pressure;altitude;pressure_sealevel;temperature;humidity
73501;BME280;61721;42.206;25.320;2023-04-01T00:01:13;98820.72;;;11.67;62.16
73501;BME280;61721;42.206;25.320;2023-04-01T00:03:41;98829.31;;;11.46;62.31
73501;BME280;61721;42.206;25.320;2023-04-01T00:06:09;98832.63;;;11.48;63.11
73501;BME280;61721;42.206;25.320;2023-04-01T00:08:38;98830.97;;;11.47;62.46
73501;BME280;61721;42.206;25.320;2023-04-01T00:11:05;98832.47;;;11.33;63.65
73501;BME280;61721;42.206;25.320;2023-04-01T00:13:32;98843.03;;;11.19;64.12
73501;BME280;61721;42.206;25.320;2023-04-01T00:16:01;98844.53;;;11.29;63.55
73501;BME280;61721;42.206;25.320;2023-04-01T00:18:30;98835.69;;;11.21;63.96
73501;BME280;61721;42.206;25.320;2023-04-01T00:20:57;98841.31;;;11.58;62.65
73501;BME280;61721;42.206;25.320;2023-04-01T00:23:25;98844.22;;;11.16;63.33
73501;BME280;61721;42.206;25.320;2023-04-01T00:25:53;98834.00;;;11.20;64.06
73501;BME280;61721;42.206;25.320;2023-04-01T00:28:20;98822.25;;;11.45;63.37
73501;BME280;61721;42.206;25.320;2023-04-01T00:30:47;98816.91;;;11.45;63.06
73501;BME280;61721;42.206;25.320;2023-04-01T00:33:16;98821.09;;;11.39;63.23
73501;BME280;61721;42.206;25.320;2023-04-01T00:35:43;98814.22;;;11.45;63.34
73501;BME280;61721;42.206;25.320;2023-04-01T00:38:10;98813.06;;;11.39;63.00
73501;BME280;61721;42.206;25.320;2023-04-01T00:40:40;98811.91;;;11.26;63.63
73501;BME280;61721;42.206;25.320;2023-04-01T00:43:13;98821.94;;;11.15;63.60
73501;BME280;61721;42.206;25.320;2023-04-01T00:45:42;98819.59;;;11.37;63.29
73501;BME280;61721;42.206;25.320;2023-04-01T00:48:13;98822.25;;;11.45;63.68
73501;BME280;61721;42.206;25.320;2023-04-01T00:50:46;98829.13;;;11.23;63.71
73501;BME280;61721;42.206;25.320;2023-04-01T00:53:17;98837.69;;;11.27;63.40
73501;BME280;61721;42.206;25.320;2023-04-01T00:55:51;98830.31;;;11.37;63.63
73501;BME280;61721;42.206;25.320;2023-04-01T00:58:23;98826.59;;;11.38;63.74
73501;BME280;61721;42.206;25.320;2023-04-01T01:00:52;98825.47;;;11.24;63.68
73501;BME280;61721;42.206;25.320;2023-04-01T01:03:19;98826.78;;;11.28;63.78
73501;BME280;61721;42.206;25.320;2023-04-01T01:08:58;98819.25;;;11.24;64.09
73501;BME280;61721;42.206;25.320;2023-04-01T01:11:33;98818.59;;;11.46;63.48
73501;BME280;61721;42.206;25.320;2023-04-01T01:14:08;98816.59;;;10.99;65.23
73501;BME280;61721;42.206;25.320;2023-04-01T01:16:42;98815.59;;;11.25;64.63
73501;BME280;61721;42.206;25.320;2023-04-01T01:19:26;98805.53;;;11.19;64.91
73501;BME280;61721;42.206;25.320;2023-04-01T01:22:21;98805.66;;;11.74;63.11
73501;BME280;61721;42.206;25.320;2023-04-01T01:24:58;98801.19;;;11.18;65.01
73501;BME280;61721;42.206;25.320;2023-04-01T01:27:33;98809.22;;;11.34;64.45
73501;BME280;61721;42.206;25.320;2023-04-01T01:30:21;98806.56;;;11.26;64.62
73501;BME280;61721;42.206;25.320;2023-04-01T01:33:01;98799.34;;;11.42;64.06
73501;BME280;61721;42.206;25.320;2023-04-01T01:35:37;98802.81;;;11.67;63.51
73501;BME280;61721;42.206;25.320;2023-04-01T01:38:08;98799.50;;;11.25;64.85
73501;BME280;61721;42.206;25.320;2023-04-01T01:40:38;98800.69;;;11.30;64.78
73501;BME280;61721;42.206;25.320;2023-04-01T01:43:10;98797.50;;;11.35;64.49
73501;BME280;61721;42.206;25.320;2023-04-01T01:45:44;98804.84;;;11.41;63.78
73501;BME280;61721;42.206;25.320;2023-04-01T01:48:13;98805.13;;;11.70;63.24
73501;BME280;61721;42.206;25.320;2023-04-01T01:50:45;98807.09;;;12.00;62.54
73501;BME280;61721;42.206;25.320;2023-04-01T01:53:13;98812.53;;;11.68;62.93
73501;BME280;61721;42.206;25.320;2023-04-01T01:55:42;98814.72;;;11.56;64.40
73501;BME280;61721;42.206;25.320;2023-04-01T01:58:13;98820.38;;;11.70;63.86
73501;BME280;61721;42.206;25.320;2023-04-01T02:00:45;98809.84;;;11.76;63.12
73501;BME280;61721;42.206;25.320;2023-04-01T02:03:15;98809.44;;;12.04;62.69
73501;BME280;61721;42.206;25.320;2023-04-01T02:05:45;98802.41;;;11.94;62.63
73501;BME280;61721;42.206;25.320;2023-04-01T02:08:15;98800.63;;;11.71;63.07
73501;BME280;61721;42.206;25.320;2023-04-01T02:10:48;98795.94;;;11.65;63.51
73501;BME280;61721;42.206;25.320;2023-04-01T02:13:23;98798.97;;;11.53;64.34
73501;BME280;61721;42.206;25.320;2023-04-01T02:15:55;98798.09;;;11.85;63.14
73501;BME280;61721;42.206;25.320;2023-04-01T02:18:23;98786.78;;;12.06;62.68
73501;BME280;61721;42.206;25.320;2023-04-01T02:20:53;98782.22;;;12.15;61.83
73501;BME280;61721;42.206;25.320;2023-04-01T02:23:21;98774.00;;;11.61;63.63
73501;BME280;61721;42.206;25.320;2023-04-01T02:25:48;98766.44;;;11.65;63.93
73501;BME280;61721;42.206;25.320;2023-04-01T02:28:18;98774.50;;;11.65;63.68
73501;BME280;61721;42.206;25.320;2023-04-01T02:30:47;98771.63;;;11.82;63.16
73501;BME280;61721;42.206;25.320;2023-04-01T02:33:15;98763.94;;;11.71;63.56
73501;BME280;61721;42.206;25.320;2023-04-01T02:35:42;98763.50;;;12.07;62.24
73501;BME280;61721;42.206;25.320;2023-04-01T02:38:11;98774.03;;;11.45;64.26
73501;BME280;61721;42.206;25.320;2023-04-01T02:40:46;98759.59;;;11.54;64.10
73501;BME280;61721;42.206;25.320;2023-04-01T02:43:14;98766.22;;;11.27;64.84
73501;BME280;61721;42.206;25.320;2023-04-01T02:45:42;98761.81;;;11.50;64.36
73501;BME280;61721;42.206;25.320;2023-04-01T02:48:09;98776.41;;;11.32;64.68
73501;BME280;61721;42.206;25.320;2023-04-01T02:50:36;98779.28;;;12.02;63.15
73501;BME280;61721;42.206;25.320;2023-04-01T02:53:03;98793.16;;;12.05;62.56
73501;BME280;61721;42.206;25.320;2023-04-01T02:55:33;98791.13;;;11.52;63.81
73501;BME280;61721;42.206;25.320;2023-04-01T02:58:00;98793.41;;;11.63;64.22
73501;BME280;61721;42.206;25.320;2023-04-01T03:00:27;98791.09;;;11.76;63.33
73501;BME280;61721;42.206;25.320;2023-04-01T03:02:55;98791.09;;;11.76;63.76
73501;BME280;61721;42.206;25.320;2023-04-01T03:05:22;98791.38;;;11.89;63.16
73501;BME280;61721;42.206;25.320;2023-04-01T03:07:50;98799.66;;;12.19;62.08
73501;BME280;61721;42.206;25.320;2023-04-01T03:10:17;98799.09;;;11.92;62.80
73501;BME280;61721;42.206;25.320;2023-04-01T03:12:45;98793.25;;;12.20;61.79
73501;BME280;61721;42.206;25.320;2023-04-01T03:15:13;98789.03;;;11.86;62.72
73501;BME280;61721;42.206;25.320;2023-04-01T03:17:41;98785.75;;;11.52;64.05
73501;BME280;61721;42.206;25.320;2023-04-01T03:20:09;98784.88;;;11.59;63.85
73501;BME280;61721;42.206;25.320;2023-04-01T03:22:38;98779.81;;;12.28;61.50
73501;BME280;61721;42.206;25.320;2023-04-01T03:25:06;98766.28;;;11.82;62.45
73501;BME280;61721;42.206;25.320;2023-04-01T03:27:34;98759.50;;;11.23;65.02
73501;BME280;61721;42.206;25.320;2023-04-01T03:30:03;98752.41;;;11.63;63.35
73501;BME280;61721;42.206;25.320;2023-04-01T03:32:31;98758.25;;;11.74;63.35
73501;BME280;61721;42.206;25.320;2023-04-01T03:34:59;98762.34;;;11.30;63.94
73501;BME280;61721;42.206;25.320;2023-04-01T03:37:26;98765.28;;;11.75;62.88
73501;BME280;61721;42.206;25.320;2023-04-01T03:39:54;98757.88;;;11.69;62.26
73501;BME280;61721;42.206;25.320;2023-04-01T03:42:21;98744.63;;;11.21;64.34
73501;BME280;61721;42.206;25.320;2023-04-01T03:44:48;98749.50;;;10.85;64.88
73501;BME280;61721;42.206;25.320;2023-04-01T03:47:17;98740.97;;;11.05;64.63
73501;BME280;61721;42.206;25.320;2023-04-01T03:49:44;98735.88;;;11.35;64.23
73501;BME280;61721;42.206;25.320;2023-04-01T03:52:11;98736.25;;;11.15;65.21
73501;BME280;61721;42.206;25.320;2023-04-01T03:54:38;98741.44;;;11.09;64.50
73501;BME280;61721;42.206;25.320;2023-04-01T03:57:06;98734.84;;;11.44;64.06
73501;BME280;61721;42.206;25.320;2023-04-01T03:59:33;98732.09;;;10.72;65.94
73501;BME280;61721;42.206;25.320;2023-04-01T04:02:00;98712.34;;;10.49;66.70
73501;BME280;61721;42.206;25.320;2023-04-01T04:04:29;98717.88;;;10.72;65.76
73501;BME280;61721;42.206;25.320;2023-04-01T04:06:56;98730.06;;;10.83;65.93
73501;BME280;61721;42.206;25.320;2023-04-01T04:09:24;98744.63;;;10.56;66.14
73501;BME280;61721;42.206;25.320;2023-04-01T04:11:51;98764.19;;;10.06;67.51
73501;BME280;61721;42.206;25.320;2023-04-01T04:14:18;98760.97;;;9.61;70.07
73501;BME280;61721;42.206;25.320;2023-04-01T04:16:45;98747.50;;;9.36;70.54
73501;BME280;61721;42.206;25.320;2023-04-01T04:19:12;98764.81;;;8.63;73.56
73501;BME280;61721;42.206;25.320;2023-04-01T04:21:41;98760.19;;;8.91;72.75
73501;BME280;61721;42.206;25.320;2023-04-01T04:24:09;98761.72;;;8.76;73.68
73501;BME280;61721;42.206;25.320;2023-04-01T04:26:36;98758.97;;;9.03;72.02
73501;BME280;61721;42.206;25.320;2023-04-01T04:29:03;98751.63;;;9.31;71.48
73501;BME280;61721;42.206;25.320;2023-04-01T04:31:30;98752.06;;;8.75;73.06
73501;BME280;61721;42.206;25.320;2023-04-01T04:33:58;98749.75;;;9.23;72.27
73501;BME280;61721;42.206;25.320;2023-04-01T04:36:26;98739.47;;;9.70;68.59
73501;BME280;61721;42.206;25.320;2023-04-01T04:38:55;98738.38;;;9.47;69.66
73501;BME280;61721;42.206;25.320;2023-04-01T04:41:23;98749.94;;;9.56;69.26
73501;BME280;61721;42.206;25.320;2023-04-01T04:43:52;98747.44;;;9.88;68.19
73501;BME280;61721;42.206;25.320;2023-04-01T04:46:20;98746.16;;;10.00;67.93
73501;BME280;61721;42.206;25.320;2023-04-01T04:48:47;98745.09;;;9.85;68.67
73501;BME280;61721;42.206;25.320;2023-04-01T04:51:15;98734.81;;;10.14;68.69
73501;BME280;61721;42.206;25.320;2023-04-01T04:53:43;98736.41;;;9.91;69.14
73501;BME280;61721;42.206;25.320;2023-04-01T04:56:11;98738.63;;;10.94;65.68
73501;BME280;61721;42.206;25.320;2023-04-01T04:58:39;98742.28;;;11.26;64.41
73501;BME280;61721;42.206;25.320;2023-04-01T05:01:08;98736.38;;;11.38;63.80
73501;BME280;61721;42.206;25.320;2023-04-01T05:03:36;98734.00;;;11.43;64.15
73501;BME280;61721;42.206;25.320;2023-04-01T05:06:04;98739.81;;;11.63;63.93
73501;BME280;61721;42.206;25.320;2023-04-01T05:08:32;98738.78;;;11.80;62.90
73501;BME280;61721;42.206;25.320;2023-04-01T05:10:59;98745.63;;;10.79;66.50
73501;BME280;61721;42.206;25.320;2023-04-01T05:13:28;98749.44;;;11.33;64.65
73501;BME280;61721;42.206;25.320;2023-04-01T05:15:56;98748.66;;;11.17;65.53
73501;BME280;61721;42.206;25.320;2023-04-01T05:18:23;98744.47;;;10.90;67.17
73501;BME280;61721;42.206;25.320;2023-04-01T05:20:52;98750.91;;;10.22;70.01
73501;BME280;61721;42.206;25.320;2023-04-01T05:23:20;98748.78;;;10.42;69.45
73501;BME280;61721;42.206;25.320;2023-04-01T05:25:49;98761.72;;;10.95;68.15
73501;BME280;61721;42.206;25.320;2023-04-01T05:28:16;98761.66;;;11.44;65.50
73501;BME280;61721;42.206;25.320;2023-04-01T05:30:45;98751.66;;;10.89;68.17
73501;BME280;61721;42.206;25.320;2023-04-01T05:33:13;98745.38;;;11.53;66.83
73501;BME280;61721;42.206;25.320;2023-04-01T05:35:40;98747.31;;;10.96;68.27
73501;BME280;61721;42.206;25.320;2023-04-01T05:38:07;98743.31;;;11.00;69.05
73501;BME280;61721;42.206;25.320;2023-04-01T05:40:34;98729.91;;;11.08;68.46
73501;BME280;61721;42.206;25.320;2023-04-01T05:43:02;98718.97;;;12.74;63.88
73501;BME280;61721;42.206;25.320;2023-04-01T05:45:29;98720.47;;;13.66;60.52
73501;BME280;61721;42.206;25.320;2023-04-01T05:47:59;98722.75;;;13.84;59.87
73501;BME280;61721;42.206;25.320;2023-04-01T05:50:26;98711.69;;;14.08;59.23
73501;BME280;61721;42.206;25.320;2023-04-01T05:52:53;98709.59;;;14.39;58.75
73501;BME280;61721;42.206;25.320;2023-04-01T05:55:20;98701.53;;;14.25;58.88
73501;BME280;61721;42.206;25.320;2023-04-01T05:57:48;98698.19;;;14.37;59.22
73501;BME280;61721;42.206;25.320;2023-04-01T06:00:16;98697.38;;;14.07;60.65
73501;BME280;61721;42.206;25.320;2023-04-01T06:02:45;98700.19;;;14.35;59.85
73501;BME280;61721;42.206;25.320;2023-04-01T06:05:17;98690.59;;;14.26;59.18
73501;BME280;61721;42.206;25.320;2023-04-01T06:07:45;98688.69;;;14.05;60.41
73501;BME280;61721;42.206;25.320;2023-04-01T06:10:14;98675.41;;;14.04;60.03
73501;BME280;61721;42.206;25.320;2023-04-01T06:13:00;98673.00;;;14.09;59.95
73501;BME280;61721;42.206;25.320;2023-04-01T06:15:36;98671.00;;;13.82;60.75
73501;BME280;61721;42.206;25.320;2023-04-01T06:18:42;98678.09;;;13.53;61.44
73501;BME280;61721;42.206;25.320;2023-04-01T06:21:40;98686.25;;;13.45;61.88
73501;BME280;61721;42.206;25.320;2023-04-01T06:24:25;98688.28;;;13.43;61.60
73501;BME280;61721;42.206;25.320;2023-04-01T06:27:04;98688.72;;;13.47;61.49
73501;BME280;61721;42.206;25.320;2023-04-01T06:29:52;98692.06;;;12.97;63.30
73501;BME280;61721;42.206;25.320;2023-04-01T06:32:48;98693.50;;;13.07;63.03
73501;BME280;61721;42.206;25.320;2023-04-01T06:38:21;98666.59;;;12.55;64.79
73501;BME280;61721;42.206;25.320;2023-04-01T06:41:04;98676.06;;;12.66;65.23
73501;BME280;61721;42.206;25.320;2023-04-01T06:43:42;98651.88;;;12.89;64.69
73501;BME280;61721;42.206;25.320;2023-04-01T06:46:19;98655.44;;;12.66;65.68
73501;BME280;61721;42.206;25.320;2023-04-01T06:49:02;98640.75;;;12.92;64.61
73501;BME280;61721;42.206;25.320;2023-04-01T06:51:39;98662.47;;;13.05;64.30
73501;BME280;61721;42.206;25.320;2023-04-01T06:54:13;98676.41;;;13.67;63.41
73501;BME280;61721;42.206;25.320;2023-04-01T06:56:45;98656.72;;;13.08;64.71
73501;BME280;61721;42.206;25.320;2023-04-01T06:59:17;98657.16;;;13.34;63.81
73501;BME280;61721;42.206;25.320;2023-04-01T07:01:47;98655.84;;;13.59;62.86
73501;BME280;61721;42.206;25.320;2023-04-01T07:04:18;98637.91;;;13.81;62.49
73501;BME280;61721;42.206;25.320;2023-04-01T07:06:50;98638.31;;;13.49;63.72
73501;BME280;61721;42.206;25.320;2023-04-01T07:09:24;98638.31;;;13.63;63.13
73501;BME280;61721;42.206;25.320;2023-04-01T07:11:56;98645.75;;;13.32;63.75
73501;BME280;61721;42.206;25.320;2023-04-01T07:14:29;98650.09;;;13.33;64.21
73501;BME280;61721;42.206;25.320;2023-04-01T07:17:02;98655.72;;;13.09;64.52
73501;BME280;61721;42.206;25.320;2023-04-01T07:19:37;98644.53;;;13.49;62.99
73501;BME280;61721;42.206;25.320;2023-04-01T07:22:16;98645.91;;;13.60;62.52
73501;BME280;61721;42.206;25.320;2023-04-01T07:24:48;98648.06;;;14.00;62.08
73501;BME280;61721;42.206;25.320;2023-04-01T07:27:16;98645.97;;;13.66;62.36
73501;BME280;61721;42.206;25.320;2023-04-01T07:29:43;98635.16;;;15.02;58.68
73501;BME280;61721;42.206;25.320;2023-04-01T07:32:18;98644.75;;;15.46;57.81
73501;BME280;61721;42.206;25.320;2023-04-01T07:34:58;98641.97;;;15.60;57.83
73501;BME280;61721;42.206;25.320;2023-04-01T07:37:30;98625.09;;;15.93;55.64
73501;BME280;61721;42.206;25.320;2023-04-01T07:40:13;98613.81;;;15.76;55.86
73501;BME280;61721;42.206;25.320;2023-04-01T07:42:58;98592.78;;;16.25;55.39
73501;BME280;61721;42.206;25.320;2023-04-01T07:45:31;98585.25;;;16.01;55.50
73501;BME280;61721;42.206;25.320;2023-04-01T07:48:11;98559.56;;;16.84;53.35
73501;BME280;61721;42.206;25.320;2023-04-01T07:50:46;98552.94;;;16.80;54.17
73501;BME280;61721;42.206;25.320;2023-04-01T07:53:21;98554.97;;;17.11;53.25
73501;BME280;61721;42.206;25.320;2023-04-01T07:55:58;98566.25;;;17.59;52.45
73501;BME280;61721;42.206;25.320;2023-04-01T07:58:34;98571.22;;;18.38;50.38
73501;BME280;61721;42.206;25.320;2023-04-01T08:01:09;98575.97;;;17.73;50.68
73501;BME280;61721;42.206;25.320;2023-04-01T08:03:51;98560.28;;;18.20;49.30
73501;BME280;61721;42.206;25.320;2023-04-01T08:06:25;98564.31;;;17.08;50.76
73501;BME280;61721;42.206;25.320;2023-04-01T08:09:02;98552.91;;;16.93;51.22
73501;BME280;61721;42.206;25.320;2023-04-01T08:11:43;98543.13;;;17.05;51.91
73501;BME280;61721;42.206;25.320;2023-04-01T08:14:21;98543.03;;;18.70;48.61
73501;BME280;61721;42.206;25.320;2023-04-01T08:16:58;98537.56;;;18.52;47.33
73501;BME280;61721;42.206;25.320;2023-04-01T08:19:39;98534.31;;;18.44;49.21
73501;BME280;61721;42.206;25.320;2023-04-01T08:22:15;98530.47;;;18.51;47.71
73501;BME280;61721;42.206;25.320;2023-04-01T08:24:46;98537.22;;;18.42;48.84
73501;BME280;61721;42.206;25.320;2023-04-01T08:27:21;98537.97;;;18.49;48.48
73501;BME280;61721;42.206;25.320;2023-04-01T08:29:54;98528.91;;;18.68;48.50
73501;BME280;61721;42.206;25.320;2023-04-01T08:32:27;98524.53;;;18.67;49.63
73501;BME280;61721;42.206;25.320;2023-04-01T08:35:07;98518.41;;;18.47;49.48
73501;BME280;61721;42.206;25.320;2023-04-01T08:37:38;98518.28;;;18.11;49.75
73501;BME280;61721;42.206;25.320;2023-04-01T08:40:31;98507.56;;;18.54;50.14
73501;BME280;61721;42.206;25.320;2023-04-01T08:43:09;98501.94;;;18.24;49.62
73501;BME280;61721;42.206;25.320;2023-04-01T08:46:02;98500.38;;;18.84;48.11
73501;BME280;61721;42.206;25.320;2023-04-01T08:51:51;98494.09;;;17.84;50.54
73501;BME280;61721;42.206;25.320;2023-04-01T08:54:36;98493.63;;;18.19;50.30
73501;BME280;61721;42.206;25.320;2023-04-01T08:57:15;98494.84;;;17.67;51.83
73501;BME280;61721;42.206;25.320;2023-04-01T09:00:08;98486.34;;;18.44;49.85
73501;BME280;61721;42.206;25.320;2023-04-01T09:06:14;98481.13;;;17.93;52.26
73501;BME280;61721;42.206;25.320;2023-04-01T09:09:06;98467.59;;;18.67;51.49
73501;BME280;61721;42.206;25.320;2023-04-01T09:11:50;98456.66;;;17.81;53.00
73501;BME280;61721;42.206;25.320;2023-04-01T09:14:33;98441.78;;;18.83;50.18
73501;BME280;61721;42.206;25.320;2023-04-01T09:23:29;98420.34;;;18.63;51.96
73501;BME280;61721;42.206;25.320;2023-04-01T09:26:17;98424.06;;;18.19;52.40
73501;BME280;61721;42.206;25.320;2023-04-01T09:28:51;98403.91;;;18.76;51.50
73501;BME280;61721;42.206;25.320;2023-04-01T09:31:39;98396.91;;;18.26;53.11
73501;BME280;61721;42.206;25.320;2023-04-01T09:34:38;98396.84;;;18.94;52.16
73501;BME280;61721;42.206;25.320;2023-04-01T09:37:51;98374.84;;;18.65;53.16
73501;BME280;61721;42.206;25.320;2023-04-01T09:40:42;98391.34;;;18.39;54.26
73501;BME280;61721;42.206;25.320;2023-04-01T09:43:26;98377.19;;;18.19;54.81
73501;BME280;61721;42.206;25.320;2023-04-01T09:46:19;98374.38;;;18.50;54.65
73501;BME280;61721;42.206;25.320;2023-04-01T09:49:13;98371.34;;;18.40;54.71
73501;BME280;61721;42.206;25.320;2023-04-01T09:51:57;98364.25;;;18.21;55.64
73501;BME280;61721;42.206;25.320;2023-04-01T09:54:37;98348.94;;;18.69;54.99
73501;BME280;61721;42.206;25.320;2023-04-01T09:57:41;98351.94;;;18.98;54.12
73501;BME280;61721;42.206;25.320;2023-04-01T10:06:57;98326.22;;;19.00;54.18
73501;BME280;61721;42.206;25.320;2023-04-01T10:16:25;98310.09;;;19.05;54.50
73501;BME280;61721;42.206;25.320;2023-04-01T10:19:15;98320.53;;;19.20;53.97
73501;BME280;61721;42.206;25.320;2023-04-01T10:25:42;98293.88;;;19.58;53.76
73501;BME280;61721;42.206;25.320;2023-04-01T10:28:43;98291.88;;;19.89;52.84
73501;BME280;61721;42.206;25.320;2023-04-01T10:31:36;98295.44;;;20.01;52.46
73501;BME280;61721;42.206;25.320;2023-04-01T10:34:35;98290.59;;;19.80;52.86
73501;BME280;61721;42.206;25.320;2023-04-01T10:37:22;98276.63;;;19.53;52.69
73501;BME280;61721;42.206;25.320;2023-04-01T10:43:36;98267.78;;;20.04;52.08
73501;BME280;61721;42.206;25.320;2023-04-01T10:49:40;98250.69;;;19.69;51.61
73501;BME280;61721;42.206;25.320;2023-04-01T10:52:26;98244.31;;;19.75;49.44
73501;BME280;61721;42.206;25.320;2023-04-01T10:55:19;98243.47;;;20.09;48.90
73501;BME280;61721;42.206;25.320;2023-04-01T11:01:13;98235.47;;;20.42;48.23
73501;BME280;61721;42.206;25.320;2023-04-01T11:04:09;98216.28;;;20.61;47.75
73501;BME280;61721;42.206;25.320;2023-04-01T11:07:15;98191.66;;;20.27;48.06
73501;BME280;61721;42.206;25.320;2023-04-01T11:13:25;98183.25;;;20.97;46.69
73501;BME280;61721;42.206;25.320;2023-04-01T11:19:38;98145.88;;;21.59;42.93
73501;BME280;61721;42.206;25.320;2023-04-01T11:28:40;98109.19;;;22.54;41.85
73501;BME280;61721;42.206;25.320;2023-04-01T11:31:40;98084.09;;;22.03;41.96
73501;BME280;61721;42.206;25.320;2023-04-01T11:34:24;98093.69;;;22.33;42.07
73501;BME280;61721;42.206;25.320;2023-04-01T11:37:05;98093.19;;;21.92;42.22
73501;BME280;61721;42.206;25.320;2023-04-01T11:39:45;98094.47;;;21.63;42.32
73501;BME280;61721;42.206;25.320;2023-04-01T11:42:24;98104.59;;;21.12;42.00
73501;BME280;61721;42.206;25.320;2023-04-01T11:45:10;98088.97;;;22.23;42.12
73501;BME280;61721;42.206;25.320;2023-04-01T11:47:55;98103.50;;;21.47;43.87
73501;BME280;61721;42.206;25.320;2023-04-01T11:50:33;98104.06;;;21.49;43.35
73501;BME280;61721;42.206;25.320;2023-04-01T11:53:12;98085.06;;;21.54;43.25
73501;BME280;61721;42.206;25.320;2023-04-01T11:55:54;98079.31;;;22.15;42.83
73501;BME280;61721;42.206;25.320;2023-04-01T11:58:40;98084.44;;;21.47;43.22
73501;BME280;61721;42.206;25.320;2023-04-01T12:01:23;98073.09;;;22.20;42.52
73501;BME280;61721;42.206;25.320;2023-04-01T12:06:55;98047.09;;;22.07;42.89
73501;BME280;61721;42.206;25.320;2023-04-01T12:09:32;98034.78;;;22.32;43.11
73501;BME280;61721;42.206;25.320;2023-04-01T12:12:15;98046.38;;;22.44;42.09
73501;BME280;61721;42.206;25.320;2023-04-01T12:14:54;98040.09;;;22.16;43.18
73501;BME280;61721;42.206;25.320;2023-04-01T12:17:34;98032.81;;;22.86;41.74
73501;BME280;61721;42.206;25.320;2023-04-01T12:20:22;98024.94;;;22.89;41.66
73501;BME280;61721;42.206;25.320;2023-04-01T12:23:01;98023.41;;;23.03;41.51
73501;BME280;61721;42.206;25.320;2023-04-01T12:25:53;98026.69;;;23.06;41.00
73501;BME280;61721;42.206;25.320;2023-04-01T12:28:29;98011.38;;;22.36;42.38
73501;BME280;61721;42.206;25.320;2023-04-01T12:31:18;98006.97;;;22.93;41.05
73501;BME280;61721;42.206;25.320;2023-04-01T12:34:13;98000.63;;;22.83;41.63
73501;BME280;61721;42.206;25.320;2023-04-01T12:36:57;97992.44;;;22.51;42.21
73501;BME280;61721;42.206;25.320;2023-04-01T12:39:44;97989.66;;;22.46;41.59
73501;BME280;61721;42.206;25.320;2023-04-01T12:42:24;97990.75;;;22.77;41.20
73501;BME280;61721;42.206;25.320;2023-04-01T12:45:17;97989.09;;;22.76;41.38
73501;BME280;61721;42.206;25.320;2023-04-01T12:51:19;97983.34;;;22.72;41.08
73501;BME280;61721;42.206;25.320;2023-04-01T12:54:18;97972.63;;;22.66;40.52
73501;BME280;61721;42.206;25.320;2023-04-01T12:57:03;97964.34;;;22.87;39.73
73501;BME280;61721;42.206;25.320;2023-04-01T12:59:45;97963.38;;;23.03;39.56
73501;BME280;61721;42.206;25.320;2023-04-01T13:02:26;97960.44;;;23.15;40.04
73501;BME280;61721;42.206;25.320;2023-04-01T13:08:26;97936.69;;;23.16;40.63
73501;BME280;61721;42.206;25.320;2023-04-01T13:11:13;97930.91;;;22.60;40.25
73501;BME280;61721;42.206;25.320;2023-04-01T13:13:58;97931.34;;;22.47;40.99
73501;BME280;61721;42.206;25.320;2023-04-01T13:16:34;97926.25;;;23.02;40.73
73501;BME280;61721;42.206;25.320;2023-04-01T13:19:08;97922.09;;;23.52;39.69
73501;BME280;61721;42.206;25.320;2023-04-01T13:21:44;97933.13;;;23.15;38.97
73501;BME280;61721;42.206;25.320;2023-04-01T13:24:28;97918.84;;;22.93;40.93
73501;BME280;61721;42.206;25.320;2023-04-01T13:27:01;97909.31;;;22.95;40.30
73501;BME280;61721;42.206;25.320;2023-04-01T13:29:35;97912.00;;;22.85;40.53
73501;BME280;61721;42.206;25.320;2023-04-01T13:32:18;97910.91;;;22.91;40.73
73501;BME280;61721;42.206;25.320;2023-04-01T13:34:55;97913.22;;;23.20;40.91
73501;BME280;61721;42.206;25.320;2023-04-01T13:37:37;97909.19;;;22.75;41.58
73501;BME280;61721;42.206;25.320;2023-04-01T13:40:26;97907.63;;;22.89;40.70
73501;BME280;61721;42.206;25.320;2023-04-01T13:42:59;97901.72;;;23.13;40.72
73501;BME280;61721;42.206;25.320;2023-04-01T13:45:33;97894.25;;;23.50;40.21
73501;BME280;61721;42.206;25.320;2023-04-01T13:51:48;97894.09;;;23.10;41.03
73501;BME280;61721;42.206;25.320;2023-04-01T13:54:40;97895.09;;;22.51;45.27
73501;BME280;61721;42.206;25.320;2023-04-01T13:57:27;97896.09;;;21.50;47.09
73501;BME280;61721;42.206;25.320;2023-04-01T14:00:10;97900.97;;;21.21;47.52
73501;BME280;61721;42.206;25.320;2023-04-01T14:03:15;97928.50;;;20.86;48.50
73501;BME280;61721;42.206;25.320;2023-04-01T14:05:53;97988.50;;;20.29;50.04
73501;BME280;61721;42.206;25.320;2023-04-01T14:08:46;98015.34;;;19.81;51.52
73501;BME280;61721;42.206;25.320;2023-04-01T14:11:22;98014.34;;;19.35;48.73
73501;BME280;61721;42.206;25.320;2023-04-01T14:14:01;98024.91;;;18.97;48.26
73501;BME280;61721;42.206;25.320;2023-04-01T14:16:52;98017.50;;;18.92;48.44
73501;BME280;61721;42.206;25.320;2023-04-01T14:19:30;98036.25;;;18.94;48.65
73501;BME280;61721;42.206;25.320;2023-04-01T14:22:09;98042.69;;;18.69;48.69
73501;BME280;61721;42.206;25.320;2023-04-01T14:24:57;98043.41;;;18.76;48.23
73501;BME280;61721;42.206;25.320;2023-04-01T14:27:53;98077.25;;;18.44;49.13
73501;BME280;61721;42.206;25.320;2023-04-01T14:30:45;98068.53;;;17.71;52.04
73501;BME280;61721;42.206;25.320;2023-04-01T14:33:29;98077.63;;;17.76;53.11
73501;BME280;61721;42.206;25.320;2023-04-01T14:36:18;98098.22;;;17.59;54.00
73501;BME280;61721;42.206;25.320;2023-04-01T14:39:00;98091.13;;;16.97;56.73
73501;BME280;61721;42.206;25.320;2023-04-01T14:41:44;98104.59;;;17.03;57.46
73501;BME280;61721;42.206;25.320;2023-04-01T14:44:44;98106.25;;;17.04;58.57
73501;BME280;61721;42.206;25.320;2023-04-01T14:47:32;98101.88;;;16.85;60.82
73501;BME280;61721;42.206;25.320;2023-04-01T14:50:07;98100.28;;;16.71;62.57